AFR350 LFPG-EDDM
Flight info
| Callsign | AFR350 |
|---|---|
| Flight time | 0h 57m |
| Altitude | 33000 |
| Route | LANVI6H/08L LANVI DCT LUPEN/N0475F270 T107 ROKIL ROKIL1A |
| Aircraft | A359/H-SDE2E3GHIJ3J4J5LM1ORWXY/LB1D1 |
Departure
| Time | 2026-05-01 07:59 |
|---|---|
| Airport | Charles de Gaulle International Airport (LFPG) |
Arrival
| Time | 2026-05-01 08:56 |
|---|---|
| Airport | Munich Airport (EDDM) |
| Time | Latitude | Longitude | Altitude | Speed | Heading |
|---|---|---|---|---|---|
| 2026-05-01 07:23 | 49.00132 | 2.58650 | 367 ft | 0 kts | 281° |
| 2026-05-01 07:48 | 49.00127 | 2.58711 | 367 ft | 4 kts | 265° |
| 2026-05-01 07:48 | 49.00134 | 2.58748 | 366 ft | 4 kts | 229° |
| 2026-05-01 07:48 | 49.00153 | 2.58765 | 363 ft | 2 kts | 176° |
| 2026-05-01 07:49 | 49.00154 | 2.58765 | 361 ft | 0 kts | 175° |
| 2026-05-01 07:52 | 49.00140 | 2.58766 | 362 ft | 11 kts | 176° |
| 2026-05-01 07:53 | 49.00020 | 2.58479 | 366 ft | 27 kts | 267° |
| 2026-05-01 07:53 | 49.00005 | 2.58175 | 363 ft | 30 kts | 265° |
| 2026-05-01 07:53 | 48.99988 | 2.57837 | 361 ft | 30 kts | 265° |
| 2026-05-01 07:53 | 48.99969 | 2.57523 | 364 ft | 27 kts | 265° |
| 2026-05-01 07:54 | 48.99914 | 2.57021 | 368 ft | 16 kts | 217° |
| 2026-05-01 07:55 | 48.99816 | 2.56299 | 363 ft | 29 kts | 264° |
| 2026-05-01 07:55 | 48.99770 | 2.55846 | 362 ft | 6 kts | 229° |
| 2026-05-01 07:56 | 48.99715 | 2.55817 | 360 ft | 0 kts | 179° |
| 2026-05-01 07:56 | 48.99695 | 2.55817 | 369 ft | 13 kts | 179° |
| 2026-05-01 07:57 | 48.99630 | 2.55831 | 366 ft | 11 kts | 155° |
| 2026-05-01 07:57 | 48.99606 | 2.55904 | 360 ft | 0 kts | 90° |
| 2026-05-01 07:58 | 48.99606 | 2.55914 | 366 ft | 0 kts | 89° |
| 2026-05-01 07:58 | 48.99637 | 2.56530 | 368 ft | 94 kts | 85° |
| 2026-05-01 07:59 | 48.99826 | 2.59758 | 749 ft | 183 kts | 85° |
| 2026-05-01 07:59 | 49.00184 | 2.63586 | 2208 ft | 206 kts | 83° |
| 2026-05-01 08:00 | 49.00585 | 2.73828 | 4983 ft | 259 kts | 86° |
| 2026-05-01 08:01 | 49.00227 | 2.82265 | 7727 ft | 274 kts | 99° |
| 2026-05-01 08:01 | 48.99936 | 2.85158 | 8713 ft | 278 kts | 98° |
| 2026-05-01 08:01 | 48.99689 | 2.88098 | 9680 ft | 282 kts | 98° |
| 2026-05-01 08:02 | 48.99179 | 2.94205 | 11140 ft | 308 kts | 98° |
| 2026-05-01 08:02 | 48.98892 | 2.97549 | 11573 ft | 329 kts | 98° |
| 2026-05-01 08:03 | 48.98276 | 3.04716 | 12979 ft | 348 kts | 99° |
| 2026-05-01 08:03 | 48.97957 | 3.08398 | 13784 ft | 354 kts | 99° |
| 2026-05-01 08:03 | 48.97300 | 3.15930 | 15394 ft | 364 kts | 99° |
| 2026-05-01 08:04 | 48.96620 | 3.23642 | 16964 ft | 372 kts | 99° |
| 2026-05-01 08:04 | 48.95925 | 3.31463 | 18474 ft | 379 kts | 99° |
| 2026-05-01 08:05 | 48.95205 | 3.39492 | 19976 ft | 387 kts | 99° |
| 2026-05-01 08:05 | 48.94834 | 3.43619 | 20734 ft | 391 kts | 99° |
| 2026-05-01 08:05 | 48.94462 | 3.47727 | 21461 ft | 395 kts | 99° |
| 2026-05-01 08:06 | 48.93708 | 3.56023 | 22860 ft | 402 kts | 99° |
| 2026-05-01 08:06 | 48.93241 | 3.64589 | 24128 ft | 411 kts | 95° |
| 2026-05-01 08:07 | 48.92818 | 3.73333 | 25363 ft | 418 kts | 96° |
| 2026-05-01 08:07 | 48.92354 | 3.82216 | 26532 ft | 427 kts | 96° |
| 2026-05-01 08:08 | 48.92111 | 3.86727 | 27123 ft | 430 kts | 96° |
| 2026-05-01 08:08 | 48.91609 | 3.95877 | 28249 ft | 436 kts | 96° |
| 2026-05-01 08:09 | 48.91091 | 4.05139 | 29228 ft | 444 kts | 95° |
| 2026-05-01 08:09 | 48.90824 | 4.09845 | 29675 ft | 448 kts | 95° |
| 2026-05-01 08:09 | 48.90556 | 4.14578 | 30166 ft | 451 kts | 95° |
| 2026-05-01 08:10 | 48.89361 | 4.23964 | 31052 ft | 457 kts | 110° |
| 2026-05-01 08:10 | 48.86501 | 4.32638 | 31858 ft | 463 kts | 119° |
| 2026-05-01 08:11 | 48.83335 | 4.41210 | 32598 ft | 468 kts | 119° |
| 2026-05-01 08:11 | 48.80150 | 4.49856 | 33224 ft | 472 kts | 119° |
| 2026-05-01 08:12 | 48.75377 | 4.62783 | 33266 ft | 466 kts | 119° |
| 2026-05-01 08:13 | 48.70612 | 4.75634 | 33267 ft | 468 kts | 119° |
| 2026-05-01 08:13 | 48.65845 | 4.88433 | 33267 ft | 468 kts | 119° |
| 2026-05-01 08:14 | 48.62644 | 4.96994 | 33266 ft | 468 kts | 119° |
| 2026-05-01 08:14 | 48.59426 | 5.05569 | 33266 ft | 469 kts | 119° |
| 2026-05-01 08:15 | 48.54578 | 5.18433 | 33264 ft | 470 kts | 119° |
| 2026-05-01 08:16 | 48.51340 | 5.26993 | 33247 ft | 470 kts | 119° |
| 2026-05-01 08:16 | 48.48096 | 5.35542 | 33267 ft | 471 kts | 119° |
| 2026-05-01 08:17 | 48.44826 | 5.44134 | 33247 ft | 472 kts | 119° |
| 2026-05-01 08:17 | 48.41558 | 5.52689 | 33274 ft | 472 kts | 119° |
| 2026-05-01 08:18 | 48.38280 | 5.61243 | 33275 ft | 472 kts | 119° |
| 2026-05-01 08:19 | 48.32406 | 5.78811 | 33285 ft | 470 kts | 103° |
| 2026-05-01 08:19 | 48.31801 | 5.88477 | 33285 ft | 468 kts | 85° |
| 2026-05-01 08:20 | 48.32391 | 5.98233 | 33293 ft | 469 kts | 83° |
| 2026-05-01 08:20 | 48.33131 | 6.07969 | 33295 ft | 469 kts | 83° |
| 2026-05-01 08:21 | 48.33848 | 6.17714 | 33292 ft | 469 kts | 83° |
| 2026-05-01 08:21 | 48.34523 | 6.27450 | 33294 ft | 469 kts | 83° |
| 2026-05-01 08:22 | 48.35183 | 6.37206 | 33294 ft | 469 kts | 83° |
| 2026-05-01 08:22 | 48.35833 | 6.46956 | 33295 ft | 468 kts | 83° |
| 2026-05-01 08:23 | 48.36473 | 6.56703 | 33295 ft | 468 kts | 83° |
| 2026-05-01 08:23 | 48.37107 | 6.66462 | 33302 ft | 469 kts | 83° |
| 2026-05-01 08:24 | 48.37733 | 6.76203 | 33302 ft | 469 kts | 83° |
| 2026-05-01 08:24 | 48.38351 | 6.85959 | 33314 ft | 468 kts | 83° |
| 2026-05-01 08:25 | 48.38957 | 6.95647 | 33320 ft | 468 kts | 83° |
| 2026-05-01 08:25 | 48.39557 | 7.05391 | 33320 ft | 467 kts | 83° |
| 2026-05-01 08:26 | 48.40147 | 7.15123 | 33323 ft | 467 kts | 83° |
| 2026-05-01 08:26 | 48.40730 | 7.24849 | 33330 ft | 466 kts | 83° |
| 2026-05-01 08:27 | 48.41304 | 7.34556 | 33330 ft | 466 kts | 83° |
| 2026-05-01 08:27 | 48.41869 | 7.44272 | 33330 ft | 466 kts | 83° |
| 2026-05-01 08:28 | 48.42425 | 7.53982 | 33340 ft | 465 kts | 83° |
| 2026-05-01 08:28 | 48.42972 | 7.63676 | 33339 ft | 464 kts | 83° |
| 2026-05-01 08:29 | 48.43512 | 7.73366 | 33331 ft | 464 kts | 83° |
| 2026-05-01 08:29 | 48.43848 | 7.81438 | 33330 ft | 465 kts | 85° |
| 2026-05-01 08:30 | 48.44044 | 7.91166 | 33321 ft | 465 kts | 86° |
| 2026-05-01 08:30 | 48.44231 | 8.00891 | 33322 ft | 465 kts | 85° |
| 2026-05-01 08:31 | 48.44447 | 8.10612 | 33319 ft | 464 kts | 85° |
| 2026-05-01 08:31 | 48.44670 | 8.20310 | 33320 ft | 464 kts | 85° |
| 2026-05-01 08:32 | 48.44886 | 8.30038 | 33321 ft | 464 kts | 85° |
| 2026-05-01 08:32 | 48.45094 | 8.39742 | 33321 ft | 463 kts | 85° |
| 2026-05-01 08:33 | 48.45294 | 8.49434 | 33331 ft | 463 kts | 85° |
| 2026-05-01 08:33 | 48.45487 | 8.59139 | 33331 ft | 463 kts | 85° |
| 2026-05-01 08:34 | 48.45671 | 8.68832 | 33330 ft | 463 kts | 85° |
| 2026-05-01 08:34 | 48.45846 | 8.78525 | 33336 ft | 463 kts | 85° |
| 2026-05-01 08:35 | 48.46011 | 8.88148 | 33339 ft | 462 kts | 85° |
| 2026-05-01 08:35 | 48.46170 | 8.97838 | 33339 ft | 462 kts | 85° |
| 2026-05-01 08:36 | 48.46280 | 9.07507 | 33349 ft | 461 kts | 86° |
| 2026-05-01 08:36 | 48.46274 | 9.17165 | 33348 ft | 461 kts | 86° |
| 2026-05-01 08:37 | 48.46255 | 9.26725 | 32870 ft | 453 kts | 86° |
| 2026-05-01 08:37 | 48.46250 | 9.31499 | 31857 ft | 458 kts | 86° |
| 2026-05-01 08:37 | 48.46250 | 9.36337 | 30760 ft | 465 kts | 86° |
| 2026-05-01 08:37 | 48.46250 | 9.41244 | 29654 ft | 470 kts | 86° |
| 2026-05-01 08:38 | 48.46248 | 9.46165 | 28717 ft | 471 kts | 87° |
| 2026-05-01 08:38 | 48.46242 | 9.51101 | 27898 ft | 469 kts | 87° |
| 2026-05-01 08:38 | 48.46233 | 9.55981 | 27120 ft | 465 kts | 87° |
| 2026-05-01 08:38 | 48.46221 | 9.60829 | 26406 ft | 460 kts | 87° |
| 2026-05-01 08:39 | 48.46207 | 9.65620 | 25779 ft | 454 kts | 87° |
| 2026-05-01 08:39 | 48.46191 | 9.70312 | 25439 ft | 442 kts | 87° |
| 2026-05-01 08:39 | 48.46195 | 9.74905 | 25358 ft | 437 kts | 86° |
| 2026-05-01 08:39 | 48.46214 | 9.79493 | 25358 ft | 438 kts | 86° |
| 2026-05-01 08:40 | 48.46258 | 9.88623 | 25159 ft | 429 kts | 86° |
| 2026-05-01 08:40 | 48.46275 | 9.93112 | 24275 ft | 429 kts | 86° |
| 2026-05-01 08:40 | 48.46290 | 9.97631 | 23291 ft | 433 kts | 87° |
| 2026-05-01 08:41 | 48.46301 | 10.02105 | 22244 ft | 422 kts | 87° |
| 2026-05-01 08:41 | 48.46306 | 10.06489 | 20958 ft | 414 kts | 87° |
| 2026-05-01 08:41 | 48.46310 | 10.10800 | 20481 ft | 406 kts | 87° |
| 2026-05-01 08:41 | 48.46312 | 10.15035 | 20049 ft | 403 kts | 87° |
| 2026-05-01 08:42 | 48.46314 | 10.19258 | 19570 ft | 402 kts | 87° |
| 2026-05-01 08:42 | 48.46315 | 10.23454 | 19085 ft | 400 kts | 87° |
| 2026-05-01 08:42 | 48.46315 | 10.27625 | 18612 ft | 397 kts | 88° |
| 2026-05-01 08:42 | 48.46313 | 10.31777 | 18148 ft | 394 kts | 88° |
| 2026-05-01 08:43 | 48.46309 | 10.35841 | 17679 ft | 392 kts | 88° |
| 2026-05-01 08:43 | 48.46304 | 10.39928 | 17200 ft | 389 kts | 88° |
| 2026-05-01 08:43 | 48.46319 | 10.43984 | 16853 ft | 385 kts | 85° |
| 2026-05-01 08:43 | 48.46482 | 10.47923 | 16224 ft | 367 kts | 84° |
| 2026-05-01 08:44 | 48.46672 | 10.51713 | 15285 ft | 356 kts | 83° |
| 2026-05-01 08:44 | 48.46881 | 10.55411 | 14683 ft | 354 kts | 83° |
| 2026-05-01 08:44 | 48.47106 | 10.59121 | 14279 ft | 362 kts | 83° |
| 2026-05-01 08:44 | 48.47345 | 10.62917 | 14079 ft | 359 kts | 83° |
| 2026-05-01 08:45 | 48.47578 | 10.66643 | 13275 ft | 359 kts | 83° |
| 2026-05-01 08:45 | 48.47814 | 10.70436 | 12266 ft | 366 kts | 83° |
| 2026-05-01 08:45 | 48.48047 | 10.74238 | 11924 ft | 366 kts | 83° |
| 2026-05-01 08:45 | 48.48278 | 10.78057 | 11672 ft | 364 kts | 83° |
| 2026-05-01 08:46 | 48.48505 | 10.81851 | 11425 ft | 363 kts | 83° |
| 2026-05-01 08:46 | 48.48727 | 10.85574 | 11273 ft | 348 kts | 84° |
| 2026-05-01 08:46 | 48.48935 | 10.89121 | 11149 ft | 330 kts | 84° |
| 2026-05-01 08:46 | 48.49113 | 10.92483 | 11018 ft | 314 kts | 86° |
| 2026-05-01 08:47 | 48.48946 | 10.95684 | 10887 ft | 301 kts | 100° |
| 2026-05-01 08:47 | 48.48393 | 10.98659 | 10751 ft | 289 kts | 106° |
| 2026-05-01 08:47 | 48.47727 | 11.01453 | 10613 ft | 278 kts | 109° |
| 2026-05-01 08:47 | 48.47001 | 11.04153 | 10501 ft | 279 kts | 110° |
| 2026-05-01 08:48 | 48.46240 | 11.06846 | 10319 ft | 279 kts | 111° |
| 2026-05-01 08:48 | 48.45467 | 11.09524 | 10067 ft | 278 kts | 111° |
| 2026-05-01 08:48 | 48.44697 | 11.12202 | 9822 ft | 277 kts | 111° |
| 2026-05-01 08:48 | 48.43941 | 11.14858 | 9561 ft | 276 kts | 111° |
| 2026-05-01 08:49 | 48.43196 | 11.17508 | 9307 ft | 274 kts | 111° |
| 2026-05-01 08:49 | 48.42453 | 11.20155 | 9057 ft | 274 kts | 111° |
| 2026-05-01 08:49 | 48.41711 | 11.22795 | 8805 ft | 273 kts | 111° |
| 2026-05-01 08:49 | 48.40980 | 11.25407 | 8604 ft | 267 kts | 111° |
| 2026-05-01 08:50 | 48.40254 | 11.27991 | 8411 ft | 270 kts | 111° |
| 2026-05-01 08:50 | 48.39523 | 11.30590 | 8101 ft | 270 kts | 111° |
| 2026-05-01 08:50 | 48.38795 | 11.33173 | 7771 ft | 265 kts | 111° |
| 2026-05-01 08:50 | 48.38079 | 11.35724 | 7454 ft | 265 kts | 111° |
| 2026-05-01 08:51 | 48.37362 | 11.38275 | 7125 ft | 264 kts | 111° |
| 2026-05-01 08:51 | 48.36647 | 11.40808 | 6802 ft | 262 kts | 111° |
| 2026-05-01 08:51 | 48.35937 | 11.43326 | 6461 ft | 260 kts | 111° |
| 2026-05-01 08:51 | 48.35237 | 11.45811 | 5996 ft | 255 kts | 111° |
| 2026-05-01 08:52 | 48.34593 | 11.48278 | 5481 ft | 254 kts | 105° |
| 2026-05-01 08:52 | 48.34299 | 11.50854 | 5163 ft | 252 kts | 91° |
| 2026-05-01 08:52 | 48.34419 | 11.53408 | 4870 ft | 235 kts | 82° |
| 2026-05-01 08:52 | 48.34655 | 11.55780 | 4357 ft | 231 kts | 83° |
| 2026-05-01 08:53 | 48.34849 | 11.58119 | 4037 ft | 216 kts | 84° |
| 2026-05-01 08:53 | 48.35012 | 11.60239 | 3747 ft | 196 kts | 84° |
| 2026-05-01 08:53 | 48.35156 | 11.62205 | 3399 ft | 182 kts | 84° |
| 2026-05-01 08:53 | 48.35292 | 11.64011 | 3157 ft | 168 kts | 84° |
| 2026-05-01 08:54 | 48.35425 | 11.65721 | 2936 ft | 162 kts | 84° |
| 2026-05-01 08:54 | 48.35551 | 11.67353 | 2726 ft | 151 kts | 85° |
| 2026-05-01 08:54 | 48.35665 | 11.68897 | 2356 ft | 151 kts | 85° |
| 2026-05-01 08:54 | 48.35774 | 11.70389 | 2252 ft | 135 kts | 84° |
| 2026-05-01 08:55 | 48.35883 | 11.71719 | 2142 ft | 123 kts | 84° |
| 2026-05-01 08:55 | 48.35992 | 11.72985 | 1971 ft | 121 kts | 84° |
| 2026-05-01 08:55 | 48.36080 | 11.74252 | 1843 ft | 125 kts | 85° |
| 2026-05-01 08:55 | 48.36177 | 11.75554 | 1686 ft | 125 kts | 84° |
| 2026-05-01 08:56 | 48.36288 | 11.76832 | 1530 ft | 125 kts | 85° |
| 2026-05-01 08:56 | 48.36382 | 11.78092 | 1462 ft | 115 kts | 85° |
| 2026-05-01 08:56 | 48.36456 | 11.79094 | 1463 ft | 59 kts | 82° |
| 2026-05-01 08:56 | 48.36452 | 11.79299 | 1463 ft | 14 kts | 112° |
| 2026-05-01 08:57 | 48.36381 | 11.79519 | 1461 ft | 25 kts | 116° |
| 2026-05-01 08:57 | 48.36318 | 11.79722 | 1462 ft | 17 kts | 115° |
| 2026-05-01 08:57 | 48.36254 | 11.79774 | 1462 ft | 8 kts | 219° |
| 2026-05-01 08:57 | 48.36232 | 11.79696 | 1463 ft | 5 kts | 260° |
| 2026-05-01 08:58 | 48.36227 | 11.79638 | 1465 ft | 6 kts | 262° |
| 2026-05-01 08:58 | 48.36216 | 11.79513 | 1465 ft | 16 kts | 264° |
| 2026-05-01 08:58 | 48.36199 | 11.79282 | 1472 ft | 30 kts | 263° |
| 2026-05-01 08:58 | 48.36175 | 11.78958 | 1470 ft | 33 kts | 263° |
| 2026-05-01 08:59 | 48.36148 | 11.78606 | 1464 ft | 35 kts | 263° |
| 2026-05-01 08:59 | 48.36118 | 11.78229 | 1464 ft | 37 kts | 263° |
| 2026-05-01 08:59 | 48.36091 | 11.77899 | 1468 ft | 27 kts | 262° |
| 2026-05-01 08:59 | 48.36052 | 11.77694 | 1461 ft | 16 kts | 216° |
| 2026-05-01 09:00 | 48.35939 | 11.77679 | 1464 ft | 20 kts | 174° |
| 2026-05-01 09:00 | 48.35788 | 11.77706 | 1464 ft | 16 kts | 173° |
| 2026-05-01 09:00 | 48.35690 | 11.77756 | 1472 ft | 19 kts | 160° |
| 2026-05-01 09:00 | 48.35541 | 11.77790 | 1465 ft | 23 kts | 174° |
| 2026-05-01 09:01 | 48.35396 | 11.77831 | 1463 ft | 20 kts | 149° |
| 2026-05-01 09:01 | 48.35369 | 11.78005 | 1464 ft | 18 kts | 82° |
| 2026-05-01 09:01 | 48.35362 | 11.78152 | 1461 ft | 12 kts | 118° |
| 2026-05-01 09:01 | 48.35288 | 11.78206 | 1463 ft | 12 kts | 171° |
| 2026-05-01 09:02 | 48.35199 | 11.78223 | 1462 ft | 13 kts | 173° |
| 2026-05-01 09:02 | 48.35099 | 11.78240 | 1469 ft | 14 kts | 173° |
| 2026-05-01 09:02 | 48.35074 | 11.78239 | 1471 ft | 2 kts | 173° |
| 2026-05-01 09:02 | 48.35084 | 11.78293 | 1462 ft | 12 kts | 62° |
| 2026-05-01 09:03 | 48.35091 | 11.78337 | 1469 ft | 4 kts | 83° |
| 2026-05-01 09:03 | 48.35091 | 11.78342 | 1470 ft | 0 kts | 83° |